sensor_id;sensor_type;location;lat;lon;timestamp;temperature;humidity
14277;DHT22;7222;57.346;12.150;2022-12-18T00:01:15;2.60;99.90
14277;DHT22;7222;57.346;12.150;2022-12-18T00:03:44;2.60;99.90
14277;DHT22;7222;57.346;12.150;2022-12-18T00:06:12;2.70;99.90
14277;DHT22;7222;57.346;12.150;2022-12-18T00:08:39;2.70;99.90
14277;DHT22;7222;57.346;12.150;2022-12-18T00:11:07;2.60;99.90
14277;DHT22;7222;57.346;12.150;2022-12-18T00:13:35;2.50;99.90
14277;DHT22;7222;57.346;12.150;2022-12-18T00:16:02;2.60;99.90
14277;DHT22;7222;57.346;12.150;2022-12-18T00:18:29;2.60;99.90
14277;DHT22;7222;57.346;12.150;2022-12-18T00:21:00;2.60;99.90
14277;DHT22;7222;57.346;12.150;2022-12-18T00:23:27;2.60;99.90
14277;DHT22;7222;57.346;12.150;2022-12-18T00:25:58;2.60;99.90
14277;DHT22;7222;57.346;12.150;2022-12-18T00:28:25;2.70;99.90
14277;DHT22;7222;57.346;12.150;2022-12-18T00:31:00;2.60;99.90
14277;DHT22;7222;57.346;12.150;2022-12-18T00:33:27;2.60;99.90
14277;DHT22;7222;57.346;12.150;2022-12-18T00:35:54;2.60;99.90
14277;DHT22;7222;57.346;12.150;2022-12-18T00:38:22;2.60;99.90
14277;DHT22;7222;57.346;12.150;2022-12-18T00:40:49;2.60;99.90
14277;DHT22;7222;57.346;12.150;2022-12-18T00:43:16;2.70;99.90
14277;DHT22;7222;57.346;12.150;2022-12-18T00:45:42;2.70;99.90
14277;DHT22;7222;57.346;12.150;2022-12-18T00:48:09;2.70;99.90
14277;DHT22;7222;57.346;12.150;2022-12-18T00:50:36;2.70;99.90
14277;DHT22;7222;57.346;12.150;2022-12-18T00:53:03;2.70;99.90
14277;DHT22;7222;57.346;12.150;2022-12-18T00:55:32;2.80;99.90
14277;DHT22;7222;57.346;12.150;2022-12-18T00:57:59;2.80;99.90
14277;DHT22;7222;57.346;12.150;2022-12-18T01:00:26;2.80;99.90
14277;DHT22;7222;57.346;12.150;2022-12-18T01:02:52;2.80;99.90
14277;DHT22;7222;57.346;12.150;2022-12-18T01:05:19;2.70;99.90
14277;DHT22;7222;57.346;12.150;2022-12-18T01:07:46;2.60;99.90
14277;DHT22;7222;57.346;12.150;2022-12-18T01:10:14;2.60;99.90
14277;DHT22;7222;57.346;12.150;2022-12-18T01:12:43;2.60;99.90
14277;DHT22;7222;57.346;12.150;2022-12-18T01:15:12;2.60;99.90
14277;DHT22;7222;57.346;12.150;2022-12-18T01:17:39;2.60;99.90
14277;DHT22;7222;57.346;12.150;2022-12-18T01:20:07;2.70;99.90
14277;DHT22;7222;57.346;12.150;2022-12-18T01:22:35;2.60;99.90
14277;DHT22;7222;57.346;12.150;2022-12-18T01:25:02;2.70;99.90
14277;DHT22;7222;57.346;12.150;2022-12-18T01:27:30;2.70;99.90
14277;DHT22;7222;57.346;12.150;2022-12-18T01:29:58;2.50;99.90
14277;DHT22;7222;57.346;12.150;2022-12-18T01:32:25;2.40;99.90
14277;DHT22;7222;57.346;12.150;2022-12-18T01:34:52;2.30;99.90
14277;DHT22;7222;57.346;12.150;2022-12-18T01:37:19;2.30;99.90
14277;DHT22;7222;57.346;12.150;2022-12-18T01:39:46;2.10;99.90
14277;DHT22;7222;57.346;12.150;2022-12-18T01:42:14;2.10;99.90
14277;DHT22;7222;57.346;12.150;2022-12-18T01:47:47;2.10;99.90
14277;DHT22;7222;57.346;12.150;2022-12-18T01:50:17;2.20;99.90
14277;DHT22;7222;57.346;12.150;2022-12-18T01:52:48;2.30;99.90
14277;DHT22;7222;57.346;12.150;2022-12-18T01:55:18;2.40;99.90
14277;DHT22;7222;57.346;12.150;2022-12-18T01:57:47;2.50;99.90
14277;DHT22;7222;57.346;12.150;2022-12-18T02:00:17;2.50;99.90
14277;DHT22;7222;57.346;12.150;2022-12-18T02:02:47;2.50;99.90
14277;DHT22;7222;57.346;12.150;2022-12-18T02:05:17;2.50;99.90
14277;DHT22;7222;57.346;12.150;2022-12-18T02:07:52;2.50;99.90
14277;DHT22;7222;57.346;12.150;2022-12-18T02:10:26;2.50;99.90
14277;DHT22;7222;57.346;12.150;2022-12-18T02:12:59;2.40;99.90
14277;DHT22;7222;57.346;12.150;2022-12-18T02:15:34;2.40;99.90
14277;DHT22;7222;57.346;12.150;2022-12-18T02:18:07;2.40;99.90
14277;DHT22;7222;57.346;12.150;2022-12-18T02:20:39;2.50;99.90
14277;DHT22;7222;57.346;12.150;2022-12-18T02:23:15;2.50;99.90
14277;DHT22;7222;57.346;12.150;2022-12-18T02:26:08;2.40;99.90
14277;DHT22;7222;57.346;12.150;2022-12-18T02:28:43;2.50;99.90
14277;DHT22;7222;57.346;12.150;2022-12-18T02:31:16;2.60;99.90
14277;DHT22;7222;57.346;12.150;2022-12-18T02:33:45;2.50;99.90
14277;DHT22;7222;57.346;12.150;2022-12-18T02:36:13;2.50;99.90
14277;DHT22;7222;57.346;12.150;2022-12-18T02:38:42;2.50;99.90
14277;DHT22;7222;57.346;12.150;2022-12-18T02:41:13;2.60;99.90
14277;DHT22;7222;57.346;12.150;2022-12-18T02:43:45;2.70;99.90
14277;DHT22;7222;57.346;12.150;2022-12-18T02:46:31;2.70;99.90
14277;DHT22;7222;57.346;12.150;2022-12-18T02:49:06;2.80;99.90
14277;DHT22;7222;57.346;12.150;2022-12-18T02:51:43;2.70;99.90
14277;DHT22;7222;57.346;12.150;2022-12-18T02:54:33;2.70;99.90
14277;DHT22;7222;57.346;12.150;2022-12-18T02:57:13;2.70;99.90
14277;DHT22;7222;57.346;12.150;2022-12-18T02:59:47;2.90;99.90
14277;DHT22;7222;57.346;12.150;2022-12-18T03:02:21;2.90;99.90
14277;DHT22;7222;57.346;12.150;2022-12-18T03:04:54;2.90;99.90
14277;DHT22;7222;57.346;12.150;2022-12-18T03:07:27;3.00;99.90
14277;DHT22;7222;57.346;12.150;2022-12-18T03:09:55;3.00;99.90
14277;DHT22;7222;57.346;12.150;2022-12-18T03:12:28;3.00;99.90
14277;DHT22;7222;57.346;12.150;2022-12-18T03:15:00;3.00;99.90
14277;DHT22;7222;57.346;12.150;2022-12-18T03:17:31;3.00;99.90
14277;DHT22;7222;57.346;12.150;2022-12-18T03:20:04;2.90;99.90
14277;DHT22;7222;57.346;12.150;2022-12-18T03:22:33;3.00;99.90
14277;DHT22;7222;57.346;12.150;2022-12-18T03:25:04;3.10;99.90
14277;DHT22;7222;57.346;12.150;2022-12-18T03:27:36;3.10;99.90
14277;DHT22;7222;57.346;12.150;2022-12-18T03:30:07;3.20;99.90
14277;DHT22;7222;57.346;12.150;2022-12-18T03:32:40;3.30;99.90
14277;DHT22;7222;57.346;12.150;2022-12-18T03:35:11;3.30;99.90
14277;DHT22;7222;57.346;12.150;2022-12-18T03:37:39;3.50;99.90
14277;DHT22;7222;57.346;12.150;2022-12-18T03:40:07;3.60;99.90
14277;DHT22;7222;57.346;12.150;2022-12-18T03:42:41;3.60;99.90
14277;DHT22;7222;57.346;12.150;2022-12-18T03:45:15;3.50;99.90
14277;DHT22;7222;57.346;12.150;2022-12-18T03:47:52;3.70;99.90
14277;DHT22;7222;57.346;12.150;2022-12-18T03:50:22;3.60;99.90
14277;DHT22;7222;57.346;12.150;2022-12-18T03:52:56;3.70;99.90
14277;DHT22;7222;57.346;12.150;2022-12-18T03:55:24;3.70;99.90
14277;DHT22;7222;57.346;12.150;2022-12-18T03:57:54;3.80;99.90
14277;DHT22;7222;57.346;12.150;2022-12-18T04:00:21;3.70;99.90
14277;DHT22;7222;57.346;12.150;2022-12-18T04:02:51;3.80;99.90
14277;DHT22;7222;57.346;12.150;2022-12-18T04:05:19;3.80;99.90
14277;DHT22;7222;57.346;12.150;2022-12-18T04:07:48;3.80;99.90
14277;DHT22;7222;57.346;12.150;2022-12-18T04:10:17;3.80;99.90
14277;DHT22;7222;57.346;12.150;2022-12-18T04:12:44;3.90;99.90
14277;DHT22;7222;57.346;12.150;2022-12-18T04:15:12;3.90;99.90
14277;DHT22;7222;57.346;12.150;2022-12-18T04:17:46;3.80;99.90
14277;DHT22;7222;57.346;12.150;2022-12-18T04:20:14;3.90;99.90
14277;DHT22;7222;57.346;12.150;2022-12-18T04:22:41;3.90;99.90
14277;DHT22;7222;57.346;12.150;2022-12-18T04:25:12;3.90;99.90
14277;DHT22;7222;57.346;12.150;2022-12-18T04:27:39;4.00;99.90
14277;DHT22;7222;57.346;12.150;2022-12-18T04:30:07;4.00;99.90
14277;DHT22;7222;57.346;12.150;2022-12-18T04:32:35;4.00;99.90
14277;DHT22;7222;57.346;12.150;2022-12-18T04:35:03;4.00;99.90
14277;DHT22;7222;57.346;12.150;2022-12-18T04:37:32;4.00;99.90
14277;DHT22;7222;57.346;12.150;2022-12-18T04:39:59;4.00;99.90
14277;DHT22;7222;57.346;12.150;2022-12-18T04:42:26;4.00;99.90
14277;DHT22;7222;57.346;12.150;2022-12-18T04:44:52;4.00;99.90
14277;DHT22;7222;57.346;12.150;2022-12-18T04:47:19;4.00;99.90
14277;DHT22;7222;57.346;12.150;2022-12-18T04:49:48;4.00;99.90
14277;DHT22;7222;57.346;12.150;2022-12-18T04:52:15;4.00;99.90
14277;DHT22;7222;57.346;12.150;2022-12-18T04:54:42;4.10;99.90
14277;DHT22;7222;57.346;12.150;2022-12-18T04:57:08;4.10;99.90
14277;DHT22;7222;57.346;12.150;2022-12-18T04:59:35;4.00;99.90
14277;DHT22;7222;57.346;12.150;2022-12-18T05:02:02;4.10;99.90
14277;DHT22;7222;57.346;12.150;2022-12-18T05:04:29;4.10;99.90
14277;DHT22;7222;57.346;12.150;2022-12-18T05:06:57;4.10;99.90
14277;DHT22;7222;57.346;12.150;2022-12-18T05:09:25;4.20;99.90
14277;DHT22;7222;57.346;12.150;2022-12-18T05:11:52;4.20;99.90
14277;DHT22;7222;57.346;12.150;2022-12-18T05:14:19;4.20;99.90
14277;DHT22;7222;57.346;12.150;2022-12-18T05:16:46;4.20;99.90
14277;DHT22;7222;57.346;12.150;2022-12-18T05:19:13;4.20;99.90
14277;DHT22;7222;57.346;12.150;2022-12-18T05:21:40;4.20;99.90
14277;DHT22;7222;57.346;12.150;2022-12-18T05:24:08;4.20;99.90
14277;DHT22;7222;57.346;12.150;2022-12-18T05:26:35;4.20;99.90
14277;DHT22;7222;57.346;12.150;2022-12-18T05:29:02;4.20;99.90
14277;DHT22;7222;57.346;12.150;2022-12-18T05:31:29;4.30;99.90
14277;DHT22;7222;57.346;12.150;2022-12-18T05:33:57;4.30;99.90
14277;DHT22;7222;57.346;12.150;2022-12-18T05:36:24;4.30;99.90
14277;DHT22;7222;57.346;12.150;2022-12-18T05:38:51;4.20;99.90
14277;DHT22;7222;57.346;12.150;2022-12-18T05:41:19;4.30;99.90
14277;DHT22;7222;57.346;12.150;2022-12-18T05:43:46;4.30;99.90
14277;DHT22;7222;57.346;12.150;2022-12-18T05:46:16;4.20;99.90
14277;DHT22;7222;57.346;12.150;2022-12-18T05:48:44;4.30;99.90
14277;DHT22;7222;57.346;12.150;2022-12-18T05:51:13;4.30;99.90
14277;DHT22;7222;57.346;12.150;2022-12-18T05:53:41;4.30;99.90
14277;DHT22;7222;57.346;12.150;2022-12-18T05:56:10;4.30;99.90
14277;DHT22;7222;57.346;12.150;2022-12-18T05:58:39;4.30;99.90
14277;DHT22;7222;57.346;12.150;2022-12-18T06:01:08;4.30;99.90
14277;DHT22;7222;57.346;12.150;2022-12-18T06:03:36;4.30;99.90
14277;DHT22;7222;57.346;12.150;2022-12-18T06:06:03;4.30;99.90
14277;DHT22;7222;57.346;12.150;2022-12-18T06:08:30;4.30;99.90
14277;DHT22;7222;57.346;12.150;2022-12-18T06:10:57;4.30;99.90
14277;DHT22;7222;57.346;12.150;2022-12-18T06:13:24;4.30;99.90
14277;DHT22;7222;57.346;12.150;2022-12-18T06:15:52;4.30;99.90
14277;DHT22;7222;57.346;12.150;2022-12-18T06:18:19;4.30;99.90
14277;DHT22;7222;57.346;12.150;2022-12-18T06:20:54;4.30;99.90
14277;DHT22;7222;57.346;12.150;2022-12-18T06:23:22;4.30;99.90
14277;DHT22;7222;57.346;12.150;2022-12-18T06:25:49;4.30;99.90
14277;DHT22;7222;57.346;12.150;2022-12-18T06:28:16;4.30;99.90
14277;DHT22;7222;57.346;12.150;2022-12-18T06:30:43;4.30;99.90
14277;DHT22;7222;57.346;12.150;2022-12-18T06:33:11;4.30;99.90
14277;DHT22;7222;57.346;12.150;2022-12-18T06:35:39;4.30;99.90
14277;DHT22;7222;57.346;12.150;2022-12-18T06:38:06;4.30;99.90
14277;DHT22;7222;57.346;12.150;2022-12-18T06:40:33;4.30;99.90
14277;DHT22;7222;57.346;12.150;2022-12-18T06:43:00;4.30;99.90
14277;DHT22;7222;57.346;12.150;2022-12-18T06:45:27;4.30;99.90
14277;DHT22;7222;57.346;12.150;2022-12-18T06:47:54;4.40;99.90
14277;DHT22;7222;57.346;12.150;2022-12-18T06:50:22;4.40;99.90
14277;DHT22;7222;57.346;12.150;2022-12-18T06:52:49;4.40;99.90
14277;DHT22;7222;57.346;12.150;2022-12-18T06:55:16;4.40;99.90
14277;DHT22;7222;57.346;12.150;2022-12-18T06:57:43;4.40;99.90
14277;DHT22;7222;57.346;12.150;2022-12-18T07:00:11;4.30;99.90
14277;DHT22;7222;57.346;12.150;2022-12-18T07:02:38;4.30;99.90
14277;DHT22;7222;57.346;12.150;2022-12-18T07:05:06;4.40;99.90
14277;DHT22;7222;57.346;12.150;2022-12-18T07:07:35;4.40;99.90
14277;DHT22;7222;57.346;12.150;2022-12-18T07:10:03;4.40;99.90
14277;DHT22;7222;57.346;12.150;2022-12-18T07:12:30;4.40;99.90
14277;DHT22;7222;57.346;12.150;2022-12-18T07:14:57;4.40;99.90
14277;DHT22;7222;57.346;12.150;2022-12-18T07:17:24;4.40;99.90
14277;DHT22;7222;57.346;12.150;2022-12-18T07:19:51;4.40;99.90
14277;DHT22;7222;57.346;12.150;2022-12-18T07:22:18;4.40;99.90
14277;DHT22;7222;57.346;12.150;2022-12-18T07:24:49;4.40;99.90
14277;DHT22;7222;57.346;12.150;2022-12-18T07:27:16;4.40;99.90
14277;DHT22;7222;57.346;12.150;2022-12-18T07:29:43;4.40;99.90
14277;DHT22;7222;57.346;12.150;2022-12-18T07:32:10;4.40;99.90
14277;DHT22;7222;57.346;12.150;2022-12-18T07:34:36;4.40;99.90
14277;DHT22;7222;57.346;12.150;2022-12-18T07:37:03;4.40;99.90
14277;DHT22;7222;57.346;12.150;2022-12-18T07:39:31;4.40;99.90
14277;DHT22;7222;57.346;12.150;2022-12-18T07:41:59;4.40;99.90
14277;DHT22;7222;57.346;12.150;2022-12-18T07:44:43;4.30;99.90
14277;DHT22;7222;57.346;12.150;2022-12-18T07:47:10;4.30;99.90
14277;DHT22;7222;57.346;12.150;2022-12-18T07:49:37;4.30;99.90
14277;DHT22;7222;57.346;12.150;2022-12-18T07:52:04;4.20;99.90
14277;DHT22;7222;57.346;12.150;2022-12-18T07:54:31;4.30;99.90
14277;DHT22;7222;57.346;12.150;2022-12-18T07:57:00;4.20;99.90
14277;DHT22;7222;57.346;12.150;2022-12-18T07:59:27;4.30;99.90
14277;DHT22;7222;57.346;12.150;2022-12-18T08:01:54;4.20;99.90
14277;DHT22;7222;57.346;12.150;2022-12-18T08:04:21;4.20;99.90
14277;DHT22;7222;57.346;12.150;2022-12-18T08:06:48;4.20;99.90
14277;DHT22;7222;57.346;12.150;2022-12-18T08:09:15;4.20;99.90
14277;DHT22;7222;57.346;12.150;2022-12-18T08:11:42;4.20;99.90
14277;DHT22;7222;57.346;12.150;2022-12-18T08:14:10;4.20;99.90
14277;DHT22;7222;57.346;12.150;2022-12-18T08:16:37;4.20;99.90
14277;DHT22;7222;57.346;12.150;2022-12-18T08:19:05;4.20;99.90
14277;DHT22;7222;57.346;12.150;2022-12-18T08:21:32;4.20;99.90
14277;DHT22;7222;57.346;12.150;2022-12-18T08:24:00;4.30;99.90
14277;DHT22;7222;57.346;12.150;2022-12-18T08:26:28;4.30;99.90
14277;DHT22;7222;57.346;12.150;2022-12-18T08:28:56;4.30;99.90
14277;DHT22;7222;57.346;12.150;2022-12-18T08:31:26;4.30;99.90
14277;DHT22;7222;57.346;12.150;2022-12-18T08:33:54;4.30;99.90
14277;DHT22;7222;57.346;12.150;2022-12-18T08:36:21;4.30;99.90
14277;DHT22;7222;57.346;12.150;2022-12-18T08:38:49;4.40;99.90
14277;DHT22;7222;57.346;12.150;2022-12-18T08:41:16;4.30;99.90
14277;DHT22;7222;57.346;12.150;2022-12-18T08:43:44;4.40;99.90
14277;DHT22;7222;57.346;12.150;2022-12-18T08:46:33;4.40;99.90
14277;DHT22;7222;57.346;12.150;2022-12-18T08:49:00;4.30;99.90
14277;DHT22;7222;57.346;12.150;2022-12-18T08:51:27;4.40;99.90
14277;DHT22;7222;57.346;12.150;2022-12-18T08:53:54;4.40;99.90
14277;DHT22;7222;57.346;12.150;2022-12-18T08:56:21;4.40;99.90
14277;DHT22;7222;57.346;12.150;2022-12-18T08:58:51;4.50;99.90
14277;DHT22;7222;57.346;12.150;2022-12-18T09:01:18;4.40;99.90
14277;DHT22;7222;57.346;12.150;2022-12-18T09:03:50;4.50;99.90
14277;DHT22;7222;57.346;12.150;2022-12-18T09:06:19;4.50;99.90
14277;DHT22;7222;57.346;12.150;2022-12-18T09:08:46;4.50;99.90
14277;DHT22;7222;57.346;12.150;2022-12-18T09:11:15;4.50;99.90
14277;DHT22;7222;57.346;12.150;2022-12-18T09:13:45;4.50;99.90
14277;DHT22;7222;57.346;12.150;2022-12-18T09:16:12;4.60;99.90
14277;DHT22;7222;57.346;12.150;2022-12-18T09:18:39;4.50;99.90
14277;DHT22;7222;57.346;12.150;2022-12-18T09:21:12;4.60;99.90
14277;DHT22;7222;57.346;12.150;2022-12-18T09:23:40;4.70;99.90
14277;DHT22;7222;57.346;12.150;2022-12-18T09:26:07;4.80;99.90
14277;DHT22;7222;57.346;12.150;2022-12-18T09:28:34;4.80;99.90
14277;DHT22;7222;57.346;12.150;2022-12-18T09:31:05;4.90;99.90
14277;DHT22;7222;57.346;12.150;2022-12-18T09:33:33;5.10;99.90
14277;DHT22;7222;57.346;12.150;2022-12-18T09:36:02;5.40;99.90
14277;DHT22;7222;57.346;12.150;2022-12-18T09:38:31;5.40;99.90
14277;DHT22;7222;57.346;12.150;2022-12-18T09:41:05;5.20;99.90
14277;DHT22;7222;57.346;12.150;2022-12-18T09:43:36;5.40;99.90
14277;DHT22;7222;57.346;12.150;2022-12-18T09:46:09;5.40;99.90
14277;DHT22;7222;57.346;12.150;2022-12-18T09:48:40;5.30;99.90
14277;DHT22;7222;57.346;12.150;2022-12-18T09:51:15;5.10;99.90
14277;DHT22;7222;57.346;12.150;2022-12-18T09:53:51;5.00;99.90
14277;DHT22;7222;57.346;12.150;2022-12-18T09:56:21;5.00;99.90
14277;DHT22;7222;57.346;12.150;2022-12-18T09:58:53;5.00;99.90
14277;DHT22;7222;57.346;12.150;2022-12-18T10:01:23;5.00;99.90
14277;DHT22;7222;57.346;12.150;2022-12-18T10:03:50;5.00;99.90
14277;DHT22;7222;57.346;12.150;2022-12-18T10:06:21;5.10;99.90
14277;DHT22;7222;57.346;12.150;2022-12-18T10:08:56;5.40;99.90
14277;DHT22;7222;57.346;12.150;2022-12-18T10:11:38;5.80;99.90
14277;DHT22;7222;57.346;12.150;2022-12-18T10:14:12;6.20;99.90
14277;DHT22;7222;57.346;12.150;2022-12-18T10:16:53;6.40;99.90
14277;DHT22;7222;57.346;12.150;2022-12-18T10:19:35;6.70;99.90
14277;DHT22;7222;57.346;12.150;2022-12-18T10:22:11;6.70;99.90
14277;DHT22;7222;57.346;12.150;2022-12-18T10:24:49;6.80;99.90
14277;DHT22;7222;57.346;12.150;2022-12-18T10:27:22;6.30;99.90
14277;DHT22;7222;57.346;12.150;2022-12-18T10:29:50;6.20;99.90
14277;DHT22;7222;57.346;12.150;2022-12-18T10:32:19;6.40;99.90
14277;DHT22;7222;57.346;12.150;2022-12-18T10:34:47;5.80;99.90
14277;DHT22;7222;57.346;12.150;2022-12-18T10:37:17;5.60;99.90
14277;DHT22;7222;57.346;12.150;2022-12-18T10:39:46;6.20;99.90
14277;DHT22;7222;57.346;12.150;2022-12-18T10:42:31;6.90;99.90
14277;DHT22;7222;57.346;12.150;2022-12-18T10:45:01;6.90;99.90
14277;DHT22;7222;57.346;12.150;2022-12-18T10:47:29;6.10;99.90
14277;DHT22;7222;57.346;12.150;2022-12-18T10:49:56;5.90;99.90
14277;DHT22;7222;57.346;12.150;2022-12-18T10:52:25;5.70;99.90
14277;DHT22;7222;57.346;12.150;2022-12-18T10:54:56;5.80;99.90
14277;DHT22;7222;57.346;12.150;2022-12-18T10:57:33;5.90;99.90
14277;DHT22;7222;57.346;12.150;2022-12-18T11:00:27;5.90;99.90
14277;DHT22;7222;57.346;12.150;2022-12-18T11:02:55;5.80;99.90
14277;DHT22;7222;57.346;12.150;2022-12-18T11:05:26;5.70;99.90
14277;DHT22;7222;57.346;12.150;2022-12-18T11:07:54;5.60;99.90
14277;DHT22;7222;57.346;12.150;2022-12-18T11:10:26;5.80;99.90
14277;DHT22;7222;57.346;12.150;2022-12-18T11:12:55;6.20;99.90
14277;DHT22;7222;57.346;12.150;2022-12-18T11:15:26;6.50;99.90
14277;DHT22;7222;57.346;12.150;2022-12-18T11:17:55;6.90;99.90
14277;DHT22;7222;57.346;12.150;2022-12-18T11:20:31;7.10;99.90
14277;DHT22;7222;57.346;12.150;2022-12-18T11:23:00;6.80;99.90
14277;DHT22;7222;57.346;12.150;2022-12-18T11:25:32;6.80;99.90
14277;DHT22;7222;57.346;12.150;2022-12-18T11:28:01;6.70;99.90
14277;DHT22;7222;57.346;12.150;2022-12-18T11:30:30;6.70;99.90
14277;DHT22;7222;57.346;12.150;2022-12-18T11:33:03;6.60;99.90
14277;DHT22;7222;57.346;12.150;2022-12-18T11:35:39;6.70;99.90
14277;DHT22;7222;57.346;12.150;2022-12-18T11:38:19;6.80;99.90
14277;DHT22;7222;57.346;12.150;2022-12-18T11:40:53;6.50;99.90
14277;DHT22;7222;57.346;12.150;2022-12-18T11:43:25;6.40;99.90
14277;DHT22;7222;57.346;12.150;2022-12-18T11:45:58;6.10;99.90
14277;DHT22;7222;57.346;12.150;2022-12-18T11:48:28;6.10;99.90
14277;DHT22;7222;57.346;12.150;2022-12-18T11:50:57;6.00;99.90
14277;DHT22;7222;57.346;12.150;2022-12-18T11:53:26;5.80;99.90
14277;DHT22;7222;57.346;12.150;2022-12-18T11:56:02;5.70;99.90
14277;DHT22;7222;57.346;12.150;2022-12-18T11:58:55;5.60;99.90
14277;DHT22;7222;57.346;12.150;2022-12-18T12:01:35;5.50;99.90
14277;DHT22;7222;57.346;12.150;2022-12-18T12:07:04;5.50;99.90
14277;DHT22;7222;57.346;12.150;2022-12-18T12:09:43;5.50;99.90
14277;DHT22;7222;57.346;12.150;2022-12-18T12:12:29;5.60;99.90
14277;DHT22;7222;57.346;12.150;2022-12-18T12:15:17;5.50;99.90
14277;DHT22;7222;57.346;12.150;2022-12-18T12:17:52;5.50;99.90
14277;DHT22;7222;57.346;12.150;2022-12-18T12:20:28;5.50;99.90
14277;DHT22;7222;57.346;12.150;2022-12-18T12:23:05;5.40;99.90
14277;DHT22;7222;57.346;12.150;2022-12-18T12:25:39;5.40;99.90
14277;DHT22;7222;57.346;12.150;2022-12-18T12:28:16;5.40;99.90
14277;DHT22;7222;57.346;12.150;2022-12-18T12:30:55;5.30;99.90
14277;DHT22;7222;57.346;12.150;2022-12-18T12:33:32;5.30;99.90
14277;DHT22;7222;57.346;12.150;2022-12-18T12:36:10;5.30;99.90
14277;DHT22;7222;57.346;12.150;2022-12-18T12:38:43;5.30;99.90
14277;DHT22;7222;57.346;12.150;2022-12-18T12:41:14;5.30;99.90
14277;DHT22;7222;57.346;12.150;2022-12-18T12:44:01;5.30;99.90
14277;DHT22;7222;57.346;12.150;2022-12-18T12:46:32;5.30;99.90
14277;DHT22;7222;57.346;12.150;2022-12-18T12:49:02;5.30;99.90
14277;DHT22;7222;57.346;12.150;2022-12-18T12:51:33;5.20;99.90
14277;DHT22;7222;57.346;12.150;2022-12-18T12:54:03;5.20;99.90
14277;DHT22;7222;57.346;12.150;2022-12-18T12:56:38;5.20;99.90
14277;DHT22;7222;57.346;12.150;2022-12-18T12:59:13;5.20;99.90
14277;DHT22;7222;57.346;12.150;2022-12-18T13:01:51;5.20;99.90
14277;DHT22;7222;57.346;12.150;2022-12-18T13:04:26;5.10;99.90
14277;DHT22;7222;57.346;12.150;2022-12-18T13:06:58;5.20;99.90
14277;DHT22;7222;57.346;12.150;2022-12-18T13:09:30;5.10;99.90
14277;DHT22;7222;57.346;12.150;2022-12-18T13:12:04;5.10;99.90
14277;DHT22;7222;57.346;12.150;2022-12-18T13:14:50;5.10;99.90
14277;DHT22;7222;57.346;12.150;2022-12-18T13:17:27;5.10;99.90
14277;DHT22;7222;57.346;12.150;2022-12-18T13:20:08;5.10;99.90
14277;DHT22;7222;57.346;12.150;2022-12-18T13:22:37;5.20;99.90
14277;DHT22;7222;57.346;12.150;2022-12-18T13:25:29;5.20;99.90
14277;DHT22;7222;57.346;12.150;2022-12-18T13:28:11;5.20;99.90
14277;DHT22;7222;57.346;12.150;2022-12-18T13:30:57;5.20;99.90
14277;DHT22;7222;57.346;12.150;2022-12-18T13:33:45;5.10;99.90
14277;DHT22;7222;57.346;12.150;2022-12-18T13:36:26;5.00;99.90
14277;DHT22;7222;57.346;12.150;2022-12-18T13:39:22;4.90;99.90
14277;DHT22;7222;57.346;12.150;2022-12-18T13:41:51;4.90;99.90
14277;DHT22;7222;57.346;12.150;2022-12-18T13:44:31;5.00;99.90
14277;DHT22;7222;57.346;12.150;2022-12-18T13:47:00;5.10;99.90
14277;DHT22;7222;57.346;12.150;2022-12-18T13:49:36;5.00;99.90
14277;DHT22;7222;57.346;12.150;2022-12-18T13:52:16;5.00;99.90
14277;DHT22;7222;57.346;12.150;2022-12-18T13:54:47;4.90;99.90
14277;DHT22;7222;57.346;12.150;2022-12-18T13:57:26;4.90;99.90
14277;DHT22;7222;57.346;12.150;2022-12-18T13:59:54;4.80;99.90
14277;DHT22;7222;57.346;12.150;2022-12-18T14:02:24;4.80;99.90
14277;DHT22;7222;57.346;12.150;2022-12-18T14:04:51;4.70;99.90
14277;DHT22;7222;57.346;12.150;2022-12-18T14:07:21;4.70;99.90
14277;DHT22;7222;57.346;12.150;2022-12-18T14:09:50;4.70;99.90
14277;DHT22;7222;57.346;12.150;2022-12-18T14:12:22;4.60;99.90
14277;DHT22;7222;57.346;12.150;2022-12-18T14:15:17;4.60;99.90
14277;DHT22;7222;57.346;12.150;2022-12-18T14:17:51;4.50;99.90
14277;DHT22;7222;57.346;12.150;2022-12-18T14:20:18;4.50;99.90
14277;DHT22;7222;57.346;12.150;2022-12-18T14:22:47;4.40;99.90
14277;DHT22;7222;57.346;12.150;2022-12-18T14:25:17;4.40;99.90
14277;DHT22;7222;57.346;12.150;2022-12-18T14:27:46;4.30;99.90
14277;DHT22;7222;57.346;12.150;2022-12-18T14:30:27;4.30;99.90
14277;DHT22;7222;57.346;12.150;2022-12-18T14:33:04;4.30;99.90
14277;DHT22;7222;57.346;12.150;2022-12-18T14:35:31;4.30;99.90
14277;DHT22;7222;57.346;12.150;2022-12-18T14:38:19;4.30;99.90
14277;DHT22;7222;57.346;12.150;2022-12-18T14:40:47;4.30;99.90
14277;DHT22;7222;57.346;12.150;2022-12-18T14:43:18;4.40;99.90
14277;DHT22;7222;57.346;12.150;2022-12-18T14:45:45;4.40;99.90
14277;DHT22;7222;57.346;12.150;2022-12-18T14:48:16;4.50;99.90
14277;DHT22;7222;57.346;12.150;2022-12-18T14:50:45;4.60;99.90
14277;DHT22;7222;57.346;12.150;2022-12-18T14:53:23;4.50;99.90
14277;DHT22;7222;57.346;12.150;2022-12-18T14:55:54;4.60;99.90
14277;DHT22;7222;57.346;12.150;2022-12-18T14:58:22;4.60;99.90
14277;DHT22;7222;57.346;12.150;2022-12-18T15:00:49;4.60;99.90
14277;DHT22;7222;57.346;12.150;2022-12-18T15:03:20;4.60;99.90
14277;DHT22;7222;57.346;12.150;2022-12-18T15:05:48;4.60;99.90
14277;DHT22;7222;57.346;12.150;2022-12-18T15:08:29;4.60;99.90
14277;DHT22;7222;57.346;12.150;2022-12-18T15:10:56;4.60;99.90
14277;DHT22;7222;57.346;12.150;2022-12-18T15:13:24;4.60;99.90
14277;DHT22;7222;57.346;12.150;2022-12-18T15:15:52;4.60;99.90
14277;DHT22;7222;57.346;12.150;2022-12-18T15:18:25;4.60;99.90
14277;DHT22;7222;57.346;12.150;2022-12-18T15:20:55;4.60;99.90
14277;DHT22;7222;57.346;12.150;2022-12-18T15:23:24;4.50;99.90
14277;DHT22;7222;57.346;12.150;2022-12-18T15:25:58;4.50;99.90
14277;DHT22;7222;57.346;12.150;2022-12-18T15:28:30;4.40;99.90
14277;DHT22;7222;57.346;12.150;2022-12-18T15:31:04;4.40;99.90
14277;DHT22;7222;57.346;12.150;2022-12-18T15:33:35;4.30;99.90
14277;DHT22;7222;57.346;12.150;2022-12-18T15:36:04;4.40;99.90
14277;DHT22;7222;57.346;12.150;2022-12-18T15:38:31;4.30;99.90
14277;DHT22;7222;57.346;12.150;2022-12-18T15:40:58;4.30;99.90
14277;DHT22;7222;57.346;12.150;2022-12-18T15:43:32;4.30;99.90
14277;DHT22;7222;57.346;12.150;2022-12-18T15:46:03;4.30;99.90
14277;DHT22;7222;57.346;12.150;2022-12-18T15:48:33;4.20;99.90
14277;DHT22;7222;57.346;12.150;2022-12-18T15:51:01;4.20;99.90
14277;DHT22;7222;57.346;12.150;2022-12-18T15:53:31;4.20;99.90
14277;DHT22;7222;57.346;12.150;2022-12-18T15:55:59;4.20;99.90
14277;DHT22;7222;57.346;12.150;2022-12-18T15:58:43;4.20;99.90
14277;DHT22;7222;57.346;12.150;2022-12-18T16:01:10;4.30;99.90
14277;DHT22;7222;57.346;12.150;2022-12-18T16:03:39;4.20;99.90
14277;DHT22;7222;57.346;12.150;2022-12-18T16:06:08;4.30;99.90
14277;DHT22;7222;57.346;12.150;2022-12-18T16:08:35;4.20;99.90
14277;DHT22;7222;57.346;12.150;2022-12-18T16:11:02;4.20;99.90
14277;DHT22;7222;57.346;12.150;2022-12-18T16:13:30;4.20;99.90